Time,TemperatureF,DewpointF,PressureIn,WindDirection,WindDirectionDegrees,WindSpeedMPH,WindSpeedGustMPH,Humidity,HourlyPrecipIn,Conditions,Clouds,dailyrainin,SoftwareType,DateUTC
2013-11-29 00:00:00,57.2,43.9,29.96,N/A,-737280,0.0,0.0,61,0.00,,,0.00,Wunderground v.1.13,2013-11-29 08:00:00,
2013-11-29 00:29:00,56.9,44.0,29.96,North,355,0.0,0.0,62,0.00,,,0.00,Wunderground v.1.13,2013-11-29 08:29:00,
2013-11-29 00:59:00,56.5,43.6,29.96,North,355,0.0,0.0,62,0.00,,,0.00,Wunderground v.1.13,2013-11-29 08:59:00,
2013-11-29 01:28:00,56.2,43.8,29.98,North,355,0.0,0.0,63,0.00,,,0.00,Wunderground v.1.13,2013-11-29 09:28:00,
2013-11-29 01:58:00,56.3,43.9,29.97,North,360,0.0,0.0,63,0.00,,,0.00,Wunderground v.1.13,2013-11-29 09:58:00,
2013-11-29 02:29:00,56.3,44.7,29.99,North,360,0.0,0.0,65,0.00,,,0.00,Wunderground v.1.13,2013-11-29 10:29:00,
2013-11-29 02:59:00,56.6,44.1,29.99,North,360,0.0,0.0,63,0.00,,,0.00,Wunderground v.1.13,2013-11-29 10:59:00,
2013-11-29 03:29:00,56.6,44.1,30.00,N/A,-737280,0.0,0.0,63,0.00,,,0.00,Wunderground v.1.13,2013-11-29 11:29:00,
2013-11-29 03:59:00,54.4,46.6,29.98,North,360,0.0,0.0,75,0.00,,,0.01,Wunderground v.1.13,2013-11-29 11:59:00,
2013-11-29 04:28:00,54.5,46.4,29.99,North,5,0.0,0.0,74,0.00,,,0.01,Wunderground v.1.13,2013-11-29 12:28:00,
2013-11-29 04:58:00,54.4,46.6,29.99,N/A,-737280,0.0,0.0,75,0.00,,,0.01,Wunderground v.1.13,2013-11-29 12:58:00,
2013-11-29 05:29:00,53.9,43.6,29.98,ENE,74,0.0,0.0,68,0.00,,,0.01,Wunderground v.1.13,2013-11-29 13:29:00,
2013-11-29 05:59:00,54.8,41.2,29.99,NE,54,0.0,0.0,60,0.00,,,0.01,Wunderground v.1.13,2013-11-29 13:59:00,
2013-11-29 06:28:00,54.1,41.4,30.01,NE,55,0.0,0.0,62,0.00,,,0.01,Wunderground v.1.13,2013-11-29 14:28:00,
2013-11-29 06:59:00,54.8,43.7,30.03,N/A,-737280,0.0,0.0,66,0.00,,,0.01,Wunderground v.1.13,2013-11-29 14:59:00,
2013-11-29 07:28:00,54.4,43.3,30.03,NE,55,0.0,0.0,66,0.00,,,0.01,Wunderground v.1.13,2013-11-29 15:28:00,
2013-11-29 07:58:00,53.5,44.7,30.05,NE,51,0.0,0.0,72,0.04,,,0.03,Wunderground v.1.13,2013-11-29 15:58:00,
2013-11-29 08:28:00,53.6,43.7,30.07,NE,40,0.0,0.0,69,0.00,,,0.04,Wunderground v.1.13,2013-11-29 16:28:00,
2013-11-29 08:58:00,52.5,46.8,30.10,NE,40,0.0,0.0,81,0.25,,,0.06,Wunderground v.1.13,2013-11-29 16:58:00,
2013-11-29 09:29:00,51.6,48.2,30.11,NE,44,0.0,0.0,88,0.16,,,0.16,Wunderground v.1.13,2013-11-29 17:29:00,
2013-11-29 09:59:00,52.0,49.2,30.11,N/A,-737280,0.0,0.0,90,0.17,,,0.22,Wunderground v.1.13,2013-11-29 17:59:00,
2013-11-29 10:29:00,53.1,50.8,30.10,NNE,30,0.0,0.0,92,0.00,,,0.24,Wunderground v.1.13,2013-11-29 18:29:00,
2013-11-29 10:59:00,52.5,49.9,30.09,ENE,71,0.0,0.0,91,0.00,,,0.24,Wunderground v.1.13,2013-11-29 18:59:00,
2013-11-29 11:29:00,56.0,51.9,30.08,NE,50,0.0,0.0,86,0.00,,,0.24,Wunderground v.1.13,2013-11-29 19:29:00,
2013-11-29 11:59:00,58.9,51.7,30.06,NE,56,0.0,0.0,77,0.00,,,0.24,Wunderground v.1.13,2013-11-29 19:59:00,
2013-11-29 12:29:00,59.3,50.6,30.05,East,82,0.0,0.0,73,0.00,,,0.24,Wunderground v.1.13,2013-11-29 20:29:00,
2013-11-29 12:58:00,60.5,46.1,30.04,East,94,0.0,0.0,59,0.00,,,0.24,Wunderground v.1.13,2013-11-29 20:58:00,
2013-11-29 13:28:00,59.0,46.8,30.05,ENE,68,0.0,0.0,64,0.00,,,0.24,Wunderground v.1.13,2013-11-29 21:28:00,
2013-11-29 13:58:00,60.2,48.0,30.03,NE,55,0.0,0.0,64,0.00,,,0.24,Wunderground v.1.13,2013-11-29 21:58:00,
2013-11-29 14:28:00,60.5,48.7,30.02,NE,54,0.0,0.0,65,0.00,,,0.24,Wunderground v.1.13,2013-11-29 22:28:00,
2013-11-29 14:58:00,60.9,49.1,30.02,N/A,-737280,0.0,0.0,65,0.00,,,0.24,Wunderground v.1.13,2013-11-29 22:58:00,
2013-11-29 15:29:00,60.5,49.1,30.03,NE,54,0.0,0.0,66,0.00,,,0.24,Wunderground v.1.13,2013-11-29 23:29:00,
2013-11-29 15:59:00,59.9,49.7,30.03,NE,54,0.0,0.0,69,0.00,,,0.24,Wunderground v.1.13,2013-11-29 23:59:00,
2013-11-29 16:29:00,59.6,49.4,30.03,N/A,-737280,0.0,0.0,69,0.00,,,0.24,Wunderground v.1.13,2013-11-30 00:29:00,
2013-11-29 16:58:00,58.6,48.8,30.04,NE,43,0.0,0.0,70,0.00,,,0.24,Wunderground v.1.13,2013-11-30 00:58:00,
2013-11-29 17:28:00,58.3,48.6,30.05,N/A,-737280,0.0,0.0,70,0.00,,,0.24,Wunderground v.1.13,2013-11-30 01:28:00,
2013-11-29 17:58:00,58.0,47.9,30.05,NE,46,0.0,0.0,69,0.00,,,0.24,Wunderground v.1.13,2013-11-30 01:58:00,
2013-11-29 18:28:00,58.4,47.5,30.06,NE,46,0.0,0.0,67,0.00,,,0.24,Wunderground v.1.13,2013-11-30 02:28:00,
2013-11-29 18:58:00,58.4,46.7,30.07,NE,50,0.0,0.0,65,0.00,,,0.24,Wunderground v.1.13,2013-11-30 02:58:00,
2013-11-29 19:29:00,58.7,47.4,30.08,NE,50,0.0,0.0,66,0.00,,,0.24,Wunderground v.1.13,2013-11-30 03:29:00,
2013-11-29 19:59:00,57.0,48.1,30.09,NE,51,0.0,0.0,72,0.00,,,0.24,Wunderground v.1.13,2013-11-30 03:59:00,
2013-11-29 20:28:00,57.2,46.7,30.10,N/A,-737280,0.0,0.0,68,0.00,,,0.24,Wunderground v.1.13,2013-11-30 04:28:00,
2013-11-29 20:58:00,57.0,45.7,30.10,NE,53,0.0,0.0,66,0.00,,,0.24,Wunderground v.1.13,2013-11-30 04:58:00,
2013-11-29 21:28:00,57.2,45.5,30.10,NE,53,0.0,0.0,65,0.00,,,0.24,Wunderground v.1.13,2013-11-30 05:28:00,
2013-11-29 21:58:00,56.5,45.7,30.10,N/A,-737280,0.0,0.0,67,0.00,,,0.24,Wunderground v.1.13,2013-11-30 05:58:00,
2013-11-29 22:29:00,55.6,47.1,30.10,NE,53,0.0,0.0,73,0.00,,,0.24,Wunderground v.1.13,2013-11-30 06:29:00,
2013-11-29 22:59:00,55.1,47.3,30.10,NE,53,0.0,0.0,75,0.00,,,0.24,Wunderground v.1.13,2013-11-30 06:59:00,
2013-11-29 23:28:00,55.1,47.3,30.09,NE,55,0.0,0.0,75,0.00,,,0.24,Wunderground v.1.13,2013-11-30 07:28:00,
2013-11-29 23:58:00,56.9,45.7,30.08,NE,53,0.0,0.0,66,0.00,,,0.00,Wunderground v.1.13,2013-11-30 07:58:00,